createdAt,value
2023-04-14T00:00:32.110Z,100775.63
2023-04-14T00:05:35.054Z,100780.94
2023-04-14T00:10:36.619Z,100784.34
2023-04-14T00:15:41.144Z,100786.91
2023-04-14T00:20:42.604Z,100780.50
2023-04-14T00:25:44.135Z,100776.47
2023-04-14T00:30:45.742Z,100780.06
2023-04-14T00:35:47.331Z,100781.75
2023-04-14T00:40:48.849Z,100794.59
2023-04-14T00:45:51.159Z,100792.03
2023-04-14T00:50:52.705Z,100787.78
2023-04-14T00:55:54.265Z,100792.19
2023-04-14T01:00:56.093Z,100794.19
2023-04-14T01:12:47.839Z,100802.19
2023-04-14T01:17:57.742Z,100797.78
2023-04-14T01:23:06.975Z,100806.19
2023-04-14T01:28:26.074Z,100801.91
2023-04-14T01:33:34.123Z,100802.91
2023-04-14T01:38:38.821Z,100803.34
2023-04-14T01:43:44.000Z,100805.19
2023-04-14T01:48:46.478Z,100805.03
2023-04-14T01:53:50.686Z,100810.47
2023-04-14T01:58:54.729Z,100808.75
2023-04-14T02:03:58.389Z,100808.75
2023-04-14T02:09:02.608Z,100814.91
2023-04-14T02:14:05.946Z,100819.03
2023-04-14T02:19:07.711Z,100819.03
2023-04-14T02:24:09.234Z,100820.03
2023-04-14T02:29:13.911Z,100829.75
2023-04-14T02:34:18.832Z,100830.19
2023-04-14T02:39:24.902Z,100839.75
2023-04-14T02:44:31.108Z,100836.47
2023-04-14T02:49:38.407Z,100841.91
2023-04-14T02:54:42.615Z,100843.03
2023-04-14T02:59:47.186Z,100846.88
2023-04-14T03:04:49.368Z,100858.75
2023-04-14T03:09:51.797Z,100854.16
2023-04-14T03:14:54.047Z,100855.28
2023-04-14T03:19:56.421Z,100859.00
2023-04-14T03:24:59.033Z,100866.28
2023-04-14T03:30:04.347Z,100869.16
2023-04-14T03:35:07.818Z,100873.25
2023-04-14T03:40:11.140Z,100874.41
2023-04-14T03:45:12.940Z,100874.81
2023-04-14T03:50:18.152Z,100876.66
2023-04-14T03:55:19.856Z,100871.38
2023-04-14T04:00:22.622Z,100874.22
2023-04-14T04:05:24.283Z,100881.66
2023-04-14T04:10:26.046Z,100880.91
2023-04-14T04:15:30.932Z,100888.50
2023-04-14T04:20:34.556Z,100898.75
2023-04-14T04:25:38.504Z,100904.72
2023-04-14T04:30:42.722Z,100900.56
2023-04-14T04:35:46.139Z,100913.13
2023-04-14T04:40:47.618Z,100916.09
2023-04-14T04:46:02.427Z,100900.25
2023-04-14T04:51:04.076Z,100898.44
2023-04-14T04:56:06.054Z,100907.41
2023-04-14T05:01:11.095Z,100903.44
2023-04-14T05:06:13.321Z,100899.72
2023-04-14T05:11:14.923Z,100906.59
2023-04-14T05:16:17.239Z,100902.00
2023-04-14T05:21:19.357Z,100906.03
2023-04-14T05:26:44.741Z,100918.16
2023-04-14T05:31:43.712Z,100913.59
2023-04-14T05:36:45.438Z,100919.03
2023-04-14T05:41:47.005Z,100927.78
2023-04-14T05:46:48.496Z,100914.66
2023-04-14T05:51:50.033Z,100914.53
2023-04-14T05:56:51.552Z,100916.41
2023-04-14T06:01:53.101Z,100924.38
2023-04-14T06:06:54.611Z,100931.41
2023-04-14T06:11:56.765Z,100931.97
2023-04-14T06:16:58.353Z,100928.09
2023-04-14T06:21:59.872Z,100925.78
2023-04-14T06:27:03.724Z,100933.38
2023-04-14T06:32:05.595Z,100929.69
2023-04-14T06:37:07.114Z,100928.47
2023-04-14T06:42:12.944Z,100920.34
2023-04-14T06:47:19.106Z,100925.56
2023-04-14T06:52:20.566Z,100923.63
2023-04-14T06:57:22.094Z,100920.84
2023-04-14T07:02:23.660Z,100915.88
2023-04-14T07:07:28.038Z,100916.22
2023-04-14T07:12:29.634Z,100914.69
2023-04-14T07:17:31.408Z,100906.50
2023-04-14T07:22:33.307Z,100919.13
2023-04-14T07:27:34.827Z,100920.47
2023-04-14T07:32:36.358Z,100915.47
2023-04-14T07:37:37.882Z,100906.41
2023-04-14T07:42:39.324Z,100911.69
2023-04-14T07:47:40.805Z,100914.97
2023-04-14T07:52:42.346Z,100912.41
2023-04-14T07:57:43.847Z,100917.19
2023-04-14T08:02:45.651Z,100916.50
2023-04-14T08:07:49.464Z,100923.72
2023-04-14T08:12:51.016Z,100926.13
2023-04-14T08:17:52.491Z,100933.28
2023-04-14T08:22:55.480Z,100932.66
2023-04-14T08:27:56.932Z,100928.38
2023-04-14T08:32:59.042Z,100938.44
2023-04-14T08:38:01.595Z,100935.38
2023-04-14T08:43:03.569Z,100930.94
2023-04-14T08:48:06.161Z,100937.06
2023-04-14T08:53:10.135Z,100937.75
2023-04-14T08:58:11.695Z,100936.06
2023-04-14T09:03:14.163Z,100935.16
2023-04-14T09:08:16.821Z,100933.94
2023-04-14T09:13:20.885Z,100935.31
2023-04-14T09:18:22.942Z,100932.75
2023-04-14T09:23:25.267Z,100926.63
2023-04-14T09:28:26.780Z,100931.91
2023-04-14T09:33:28.841Z,100924.88
2023-04-14T09:38:39.617Z,100926.72
2023-04-14T09:43:42.254Z,100914.72
2023-04-14T09:48:53.325Z,100924.09
2023-04-14T09:53:55.750Z,100911.69
2023-04-14T09:58:59.915Z,100911.13
2023-04-14T10:04:02.833Z,100910.94
2023-04-14T10:09:05.819Z,100918.06
2023-04-14T10:14:07.925Z,100901.66
2023-04-14T10:19:09.420Z,100901.00
2023-04-14T10:24:12.770Z,100901.59
2023-04-14T10:29:14.254Z,100897.91
2023-04-14T10:34:16.211Z,100894.84
2023-04-14T10:39:24.350Z,100903.97
2023-04-14T10:44:34.717Z,100894.84
2023-04-14T10:49:41.514Z,100898.25
2023-04-14T10:55:07.710Z,100881.31
2023-04-14T11:00:30.132Z,100874.69
2023-04-14T11:05:35.668Z,100871.41
2023-04-14T11:10:37.596Z,100874.09
2023-04-14T11:15:52.248Z,100872.28
2023-04-14T11:20:54.674Z,100870.06
2023-04-14T11:25:58.025Z,100868.34
2023-04-14T11:31:01.137Z,100871.06
2023-04-14T11:36:04.560Z,100868.88
2023-04-14T11:41:06.961Z,100874.63
2023-04-14T11:46:08.886Z,100871.91
2023-04-14T11:51:10.539Z,100865.38
2023-04-14T11:56:13.262Z,100865.56
2023-04-14T12:01:15.171Z,100868.16
2023-04-14T12:06:16.837Z,100867.13
2023-04-14T12:11:18.351Z,100857.84
2023-04-14T12:16:20.049Z,100868.97
2023-04-14T12:21:21.559Z,100863.13
2023-04-14T12:26:25.738Z,100860.19
2023-04-14T12:31:29.828Z,100869.66
2023-04-14T12:36:47.852Z,100859.56
2023-04-14T12:41:51.005Z,100854.09
2023-04-14T12:46:53.833Z,100853.50
2023-04-14T12:51:55.489Z,100852.16
2023-04-14T12:56:57.178Z,100844.41
2023-04-14T13:01:58.800Z,100853.34
2023-04-14T13:07:00.322Z,100839.03
2023-04-14T13:12:01.908Z,100830.38
2023-04-14T13:17:03.519Z,100823.19
2023-04-14T13:22:05.529Z,100838.53
2023-04-14T13:27:07.258Z,100824.47
2023-04-14T13:32:12.396Z,100827.47
2023-04-14T13:37:13.964Z,100827.28
2023-04-14T13:42:15.434Z,100814.00
2023-04-14T13:47:18.799Z,100829.78
2023-04-14T13:52:20.402Z,100814.84
2023-04-14T13:57:21.925Z,100812.47
2023-04-14T14:02:23.969Z,100806.69
2023-04-14T14:07:25.842Z,100800.56
2023-04-14T14:12:27.748Z,100807.28
2023-04-14T14:17:29.341Z,100792.53
2023-04-14T14:22:31.140Z,100799.28
2023-04-14T14:27:32.666Z,100793.59
2023-04-14T14:32:34.173Z,100777.44
2023-04-14T14:37:35.694Z,100776.66
2023-04-14T14:42:37.375Z,100781.31
2023-04-14T14:47:39.337Z,100775.38
2023-04-14T14:52:41.336Z,100772.34
2023-04-14T14:57:43.119Z,100769.63
2023-04-14T15:02:44.933Z,100767.53
2023-04-14T15:07:46.797Z,100744.75
2023-04-14T15:12:48.386Z,100764.22
2023-04-14T15:17:49.899Z,100762.31
2023-04-14T15:22:51.399Z,100776.00
2023-04-14T15:27:52.916Z,100769.28
2023-04-14T15:32:54.453Z,100767.03
2023-04-14T15:37:56.917Z,100762.78
2023-04-14T15:42:58.433Z,100758.25
2023-04-14T15:47:59.984Z,100756.28
2023-04-14T15:53:01.505Z,100752.28
2023-04-14T15:58:04.104Z,100767.44
2023-04-14T16:03:05.930Z,100778.13
2023-04-14T16:08:07.475Z,100780.72
2023-04-14T16:13:08.984Z,100768.34
2023-04-14T16:18:10.493Z,100763.16
2023-04-14T16:23:12.019Z,100759.47
2023-04-14T16:28:15.942Z,100772.19
2023-04-14T16:33:17.545Z,100763.69
2023-04-14T16:38:19.112Z,100765.03
2023-04-14T16:43:23.750Z,100760.69
2023-04-14T16:48:25.648Z,100748.78
2023-04-14T16:53:30.428Z,100758.00
2023-04-14T16:58:32.483Z,100763.31
2023-04-14T17:03:36.162Z,100738.34
2023-04-14T17:08:57.682Z,100763.69
2023-04-14T17:14:02.512Z,100758.66
2023-04-14T17:19:14.580Z,100711.84
2023-04-14T17:24:16.251Z,100724.03
2023-04-14T17:29:36.181Z,100719.50
2023-04-14T17:34:52.735Z,100709.16
2023-04-14T17:40:08.213Z,100717.22
2023-04-14T17:45:23.330Z,100709.72
2023-04-14T17:50:41.531Z,100780.44
2023-04-14T17:55:43.626Z,100721.41
2023-04-14T18:00:47.989Z,100745.34
2023-04-14T18:06:01.713Z,100750.50
2023-04-14T18:11:12.660Z,100749.50
2023-04-14T18:16:14.378Z,100796.94
2023-04-14T18:21:16.403Z,100770.66
2023-04-14T18:26:27.009Z,100800.75
2023-04-14T18:31:32.047Z,100767.19
2023-04-14T18:36:33.664Z,100746.94
2023-04-14T18:41:55.441Z,100739.97
2023-04-14T18:47:04.872Z,100806.66
2023-04-14T18:52:09.198Z,100807.84
2023-04-14T18:57:20.031Z,100818.44
2023-04-14T19:02:21.773Z,100789.00
2023-04-14T19:07:23.595Z,100820.00
2023-04-14T19:12:39.756Z,100829.94
2023-04-14T19:17:53.203Z,100768.81
2023-04-14T19:22:59.952Z,100828.34
2023-04-14T19:28:02.315Z,100834.84
2023-04-14T19:33:09.513Z,100849.91
2023-04-14T19:43:29.696Z,100840.53
2023-04-14T19:48:37.364Z,100798.78
2023-04-14T19:53:48.033Z,100816.19
2023-04-14T20:04:18.403Z,100854.75
2023-04-14T20:09:20.756Z,100869.44
2023-04-14T20:14:38.237Z,100882.94
2023-04-14T20:19:44.998Z,100868.56
2023-04-14T20:24:46.707Z,100861.59
2023-04-14T20:29:48.426Z,100875.97
2023-04-14T20:34:59.993Z,100858.88
2023-04-14T20:40:13.725Z,100871.34
2023-04-14T20:45:18.156Z,100859.91
2023-04-14T20:50:26.792Z,100863.16
2023-04-14T20:55:28.543Z,100850.53
2023-04-14T21:00:31.927Z,100859.59
2023-04-14T21:05:34.700Z,100865.38
2023-04-14T21:11:14.920Z,100887.22
2023-04-14T21:15:58.143Z,100844.56
2023-04-14T21:20:59.676Z,100843.00
2023-04-14T21:26:04.267Z,100872.56
2023-04-14T21:31:06.786Z,100868.25
2023-04-14T21:36:09.798Z,100896.25
2023-04-14T21:41:11.595Z,100861.19
2023-04-14T21:46:13.810Z,100874.34
2023-04-14T21:56:47.523Z,100859.97
2023-04-14T22:01:59.179Z,100893.41
2023-04-14T22:07:02.512Z,100894.09
2023-04-14T22:12:05.032Z,100862.44
2023-04-14T22:17:26.109Z,100862.09
2023-04-14T22:22:27.900Z,100889.06
2023-04-14T22:27:29.493Z,100881.84
2023-04-14T22:32:32.332Z,100900.41
2023-04-14T22:37:33.986Z,100886.00
2023-04-14T22:42:41.920Z,100908.03
2023-04-14T22:47:43.568Z,100901.31
2023-04-14T22:52:45.601Z,100912.38
2023-04-14T22:57:47.456Z,100919.53
2023-04-14T23:03:03.614Z,100898.31
2023-04-14T23:08:05.631Z,100920.69
2023-04-14T23:13:11.928Z,100902.91
2023-04-14T23:18:13.928Z,100912.47
2023-04-14T23:23:21.563Z,100928.72
2023-04-14T23:28:23.043Z,100928.72
2023-04-14T23:33:24.688Z,100935.50
2023-04-14T23:38:26.308Z,100924.84
2023-04-14T23:43:43.250Z,100925.88
2023-04-14T23:48:44.841Z,100915.25
2023-04-14T23:54:02.819Z,100948.53
2023-04-14T23:59:11.256Z,100916.50
